sensor_id;sensor_type;location;lat;lon;timestamp;temperature;humidity
31133;DHT22;17779;50.942;4.026;2022-09-11T00:01:26;17.20;99.90
31133;DHT22;17779;50.942;4.026;2022-09-11T00:06:24;17.20;99.90
31133;DHT22;17779;50.942;4.026;2022-09-11T00:08:51;17.10;99.90
31133;DHT22;17779;50.942;4.026;2022-09-11T00:11:19;17.10;99.90
31133;DHT22;17779;50.942;4.026;2022-09-11T00:13:48;17.00;99.90
31133;DHT22;17779;50.942;4.026;2022-09-11T00:16:18;17.00;99.90
31133;DHT22;17779;50.942;4.026;2022-09-11T00:18:48;16.90;99.90
31133;DHT22;17779;50.942;4.026;2022-09-11T00:21:15;16.70;99.90
31133;DHT22;17779;50.942;4.026;2022-09-11T00:23:41;16.80;99.90
31133;DHT22;17779;50.942;4.026;2022-09-11T00:26:09;16.90;99.90
31133;DHT22;17779;50.942;4.026;2022-09-11T00:28:35;16.90;99.90
31133;DHT22;17779;50.942;4.026;2022-09-11T00:31:12;16.90;99.90
31133;DHT22;17779;50.942;4.026;2022-09-11T00:33:38;17.00;99.90
31133;DHT22;17779;50.942;4.026;2022-09-11T00:36:07;17.00;99.90
31133;DHT22;17779;50.942;4.026;2022-09-11T00:38:35;16.80;99.90
31133;DHT22;17779;50.942;4.026;2022-09-11T00:41:05;16.80;99.90
31133;DHT22;17779;50.942;4.026;2022-09-11T00:46:20;16.80;99.90
31133;DHT22;17779;50.942;4.026;2022-09-11T00:48:49;16.90;99.90
31133;DHT22;17779;50.942;4.026;2022-09-11T00:51:19;17.00;99.90
31133;DHT22;17779;50.942;4.026;2022-09-11T00:56:15;16.90;99.90
31133;DHT22;17779;50.942;4.026;2022-09-11T00:58:42;16.90;99.90
31133;DHT22;17779;50.942;4.026;2022-09-11T01:03:41;16.90;99.90
31133;DHT22;17779;50.942;4.026;2022-09-11T01:08:35;16.70;99.90
31133;DHT22;17779;50.942;4.026;2022-09-11T01:21:21;16.70;99.90
31133;DHT22;17779;50.942;4.026;2022-09-11T01:23:59;16.70;99.90
31133;DHT22;17779;50.942;4.026;2022-09-11T01:31:54;16.70;99.90
31133;DHT22;17779;50.942;4.026;2022-09-11T01:36:50;16.40;99.90
31133;DHT22;17779;50.942;4.026;2022-09-11T01:39:19;16.50;99.90
31133;DHT22;17779;50.942;4.026;2022-09-11T01:41:57;16.50;99.90
31133;DHT22;17779;50.942;4.026;2022-09-11T01:47:26;16.50;99.90
31133;DHT22;17779;50.942;4.026;2022-09-11T01:49:57;16.40;99.90
31133;DHT22;17779;50.942;4.026;2022-09-11T01:55:12;16.20;99.90
31133;DHT22;17779;50.942;4.026;2022-09-11T01:57:59;16.10;99.90
31133;DHT22;17779;50.942;4.026;2022-09-11T02:00:26;16.20;99.90
31133;DHT22;17779;50.942;4.026;2022-09-11T02:02:55;16.30;99.90
31133;DHT22;17779;50.942;4.026;2022-09-11T02:05:36;16.30;99.90
31133;DHT22;17779;50.942;4.026;2022-09-11T02:08:06;16.30;99.90
31133;DHT22;17779;50.942;4.026;2022-09-11T02:10:35;16.30;99.90
31133;DHT22;17779;50.942;4.026;2022-09-11T02:13:14;16.30;99.90
31133;DHT22;17779;50.942;4.026;2022-09-11T02:15:43;16.20;99.90
31133;DHT22;17779;50.942;4.026;2022-09-11T02:18:19;16.20;99.90
31133;DHT22;17779;50.942;4.026;2022-09-11T02:20:46;16.10;99.90
31133;DHT22;17779;50.942;4.026;2022-09-11T02:23:13;16.10;99.90
31133;DHT22;17779;50.942;4.026;2022-09-11T02:25:40;16.10;99.90
31133;DHT22;17779;50.942;4.026;2022-09-11T02:28:07;16.20;99.90
31133;DHT22;17779;50.942;4.026;2022-09-11T02:30:33;16.30;99.90
31133;DHT22;17779;50.942;4.026;2022-09-11T02:33:00;16.30;99.90
31133;DHT22;17779;50.942;4.026;2022-09-11T02:35:27;16.30;99.90
31133;DHT22;17779;50.942;4.026;2022-09-11T02:38:05;16.30;99.90
31133;DHT22;17779;50.942;4.026;2022-09-11T02:45:45;16.20;99.90
31133;DHT22;17779;50.942;4.026;2022-09-11T02:50:54;16.10;99.90
31133;DHT22;17779;50.942;4.026;2022-09-11T02:56:07;15.90;99.90
31133;DHT22;17779;50.942;4.026;2022-09-11T03:01:06;15.80;99.90
31133;DHT22;17779;50.942;4.026;2022-09-11T03:03:39;15.80;99.90
31133;DHT22;17779;50.942;4.026;2022-09-11T03:06:07;15.90;99.90
31133;DHT22;17779;50.942;4.026;2022-09-11T03:08:35;15.90;99.90
31133;DHT22;17779;50.942;4.026;2022-09-11T03:11:02;15.70;99.90
31133;DHT22;17779;50.942;4.026;2022-09-11T03:13:31;15.80;99.90
31133;DHT22;17779;50.942;4.026;2022-09-11T03:15:59;15.90;99.90
31133;DHT22;17779;50.942;4.026;2022-09-11T03:18:27;15.80;99.90
31133;DHT22;17779;50.942;4.026;2022-09-11T03:20:52;15.70;99.90
31133;DHT22;17779;50.942;4.026;2022-09-11T03:23:18;15.70;99.90
31133;DHT22;17779;50.942;4.026;2022-09-11T03:25:45;15.70;99.90
31133;DHT22;17779;50.942;4.026;2022-09-11T03:28:10;15.50;99.90
31133;DHT22;17779;50.942;4.026;2022-09-11T03:30:38;15.30;99.90
31133;DHT22;17779;50.942;4.026;2022-09-11T03:33:04;15.30;99.90
31133;DHT22;17779;50.942;4.026;2022-09-11T03:35:29;15.40;99.90
31133;DHT22;17779;50.942;4.026;2022-09-11T03:37:55;15.40;99.90
31133;DHT22;17779;50.942;4.026;2022-09-11T03:40:21;15.50;99.90
31133;DHT22;17779;50.942;4.026;2022-09-11T03:42:47;15.50;99.90
31133;DHT22;17779;50.942;4.026;2022-09-11T03:45:19;15.30;99.90
31133;DHT22;17779;50.942;4.026;2022-09-11T03:47:46;15.20;99.90
31133;DHT22;17779;50.942;4.026;2022-09-11T03:50:13;15.40;99.90
31133;DHT22;17779;50.942;4.026;2022-09-11T03:52:39;15.40;99.90
31133;DHT22;17779;50.942;4.026;2022-09-11T03:55:05;15.50;99.90
31133;DHT22;17779;50.942;4.026;2022-09-11T03:57:34;15.50;99.90
31133;DHT22;17779;50.942;4.026;2022-09-11T04:00:00;15.60;99.90
31133;DHT22;17779;50.942;4.026;2022-09-11T04:02:26;15.30;99.90
31133;DHT22;17779;50.942;4.026;2022-09-11T04:04:52;15.00;99.90
31133;DHT22;17779;50.942;4.026;2022-09-11T04:07:18;15.10;99.90
31133;DHT22;17779;50.942;4.026;2022-09-11T04:09:45;15.00;99.90
31133;DHT22;17779;50.942;4.026;2022-09-11T04:12:11;15.00;99.90
31133;DHT22;17779;50.942;4.026;2022-09-11T04:14:37;14.80;99.90
31133;DHT22;17779;50.942;4.026;2022-09-11T04:17:03;14.80;99.90
31133;DHT22;17779;50.942;4.026;2022-09-11T04:19:30;15.00;99.90
31133;DHT22;17779;50.942;4.026;2022-09-11T04:21:58;15.00;99.90
31133;DHT22;17779;50.942;4.026;2022-09-11T04:24:25;14.90;99.90
31133;DHT22;17779;50.942;4.026;2022-09-11T04:26:51;14.90;99.90
31133;DHT22;17779;50.942;4.026;2022-09-11T04:29:16;14.70;99.90
31133;DHT22;17779;50.942;4.026;2022-09-11T04:31:43;14.70;99.90
31133;DHT22;17779;50.942;4.026;2022-09-11T04:34:10;14.60;99.90
31133;DHT22;17779;50.942;4.026;2022-09-11T04:36:36;14.60;99.90
31133;DHT22;17779;50.942;4.026;2022-09-11T04:39:01;14.60;99.90
31133;DHT22;17779;50.942;4.026;2022-09-11T04:41:28;14.60;99.90
31133;DHT22;17779;50.942;4.026;2022-09-11T04:43:55;14.80;99.90
31133;DHT22;17779;50.942;4.026;2022-09-11T04:46:21;14.50;99.90
31133;DHT22;17779;50.942;4.026;2022-09-11T04:48:49;14.30;99.90
31133;DHT22;17779;50.942;4.026;2022-09-11T04:51:19;14.50;99.90
31133;DHT22;17779;50.942;4.026;2022-09-11T04:53:48;14.40;99.90
31133;DHT22;17779;50.942;4.026;2022-09-11T04:56:15;14.40;99.90
31133;DHT22;17779;50.942;4.026;2022-09-11T04:58:41;14.30;99.90
31133;DHT22;17779;50.942;4.026;2022-09-11T05:01:08;14.40;99.90
31133;DHT22;17779;50.942;4.026;2022-09-11T05:03:34;14.50;99.90
31133;DHT22;17779;50.942;4.026;2022-09-11T05:06:06;14.30;99.90
31133;DHT22;17779;50.942;4.026;2022-09-11T05:08:32;14.10;99.90
31133;DHT22;17779;50.942;4.026;2022-09-11T05:10:58;14.00;99.90
31133;DHT22;17779;50.942;4.026;2022-09-11T05:13:24;14.00;99.90
31133;DHT22;17779;50.942;4.026;2022-09-11T05:15:51;14.20;99.90
31133;DHT22;17779;50.942;4.026;2022-09-11T05:18:20;14.30;99.90
31133;DHT22;17779;50.942;4.026;2022-09-11T05:20:47;14.10;99.90
31133;DHT22;17779;50.942;4.026;2022-09-11T05:23:13;14.20;99.90
31133;DHT22;17779;50.942;4.026;2022-09-11T05:25:39;14.30;99.90
31133;DHT22;17779;50.942;4.026;2022-09-11T05:28:05;14.40;99.90
31133;DHT22;17779;50.942;4.026;2022-09-11T05:30:34;14.30;99.90
31133;DHT22;17779;50.942;4.026;2022-09-11T05:32:59;14.30;99.90
31133;DHT22;17779;50.942;4.026;2022-09-11T05:35:26;14.30;99.90
31133;DHT22;17779;50.942;4.026;2022-09-11T05:37:52;14.50;99.90
31133;DHT22;17779;50.942;4.026;2022-09-11T05:40:18;14.60;99.90
31133;DHT22;17779;50.942;4.026;2022-09-11T05:42:45;14.80;99.90
31133;DHT22;17779;50.942;4.026;2022-09-11T05:45:10;14.90;99.90
31133;DHT22;17779;50.942;4.026;2022-09-11T05:47:37;14.70;99.90
31133;DHT22;17779;50.942;4.026;2022-09-11T05:50:03;14.40;99.90
31133;DHT22;17779;50.942;4.026;2022-09-11T05:52:31;14.30;99.90
31133;DHT22;17779;50.942;4.026;2022-09-11T05:55:02;14.50;99.90
31133;DHT22;17779;50.942;4.026;2022-09-11T05:57:28;14.70;99.90
31133;DHT22;17779;50.942;4.026;2022-09-11T05:59:57;14.80;99.90
31133;DHT22;17779;50.942;4.026;2022-09-11T06:02:23;14.70;99.90
31133;DHT22;17779;50.942;4.026;2022-09-11T06:04:48;14.60;99.90
31133;DHT22;17779;50.942;4.026;2022-09-11T06:07:16;14.70;99.90
31133;DHT22;17779;50.942;4.026;2022-09-11T06:09:44;14.70;99.90
31133;DHT22;17779;50.942;4.026;2022-09-11T06:12:09;14.80;99.90
31133;DHT22;17779;50.942;4.026;2022-09-11T06:14:37;14.70;99.90
31133;DHT22;17779;50.942;4.026;2022-09-11T06:17:04;14.80;99.90
31133;DHT22;17779;50.942;4.026;2022-09-11T06:19:32;14.60;99.90
31133;DHT22;17779;50.942;4.026;2022-09-11T06:21:58;14.50;99.90
31133;DHT22;17779;50.942;4.026;2022-09-11T06:24:24;14.50;99.90
31133;DHT22;17779;50.942;4.026;2022-09-11T06:26:50;14.40;99.90
31133;DHT22;17779;50.942;4.026;2022-09-11T06:29:17;14.40;99.90
31133;DHT22;17779;50.942;4.026;2022-09-11T06:31:43;14.60;99.90
31133;DHT22;17779;50.942;4.026;2022-09-11T06:34:12;14.70;99.90
31133;DHT22;17779;50.942;4.026;2022-09-11T06:36:38;14.90;99.90
31133;DHT22;17779;50.942;4.026;2022-09-11T06:41:33;15.30;99.90
31133;DHT22;17779;50.942;4.026;2022-09-11T06:43:58;15.60;99.90
31133;DHT22;17779;50.942;4.026;2022-09-11T06:46:24;16.00;99.90
31133;DHT22;17779;50.942;4.026;2022-09-11T06:48:52;16.30;99.90
31133;DHT22;17779;50.942;4.026;2022-09-11T06:51:18;16.40;99.90
31133;DHT22;17779;50.942;4.026;2022-09-11T06:53:44;16.20;99.90
31133;DHT22;17779;50.942;4.026;2022-09-11T06:56:15;16.10;99.90
31133;DHT22;17779;50.942;4.026;2022-09-11T06:58:42;16.40;99.90
31133;DHT22;17779;50.942;4.026;2022-09-11T07:01:10;16.50;99.90
31133;DHT22;17779;50.942;4.026;2022-09-11T07:03:36;16.50;99.90
31133;DHT22;17779;50.942;4.026;2022-09-11T07:06:02;16.80;99.90
31133;DHT22;17779;50.942;4.026;2022-09-11T07:08:28;16.70;99.90
31133;DHT22;17779;50.942;4.026;2022-09-11T07:10:53;17.20;99.90
31133;DHT22;17779;50.942;4.026;2022-09-11T07:13:19;17.30;99.90
31133;DHT22;17779;50.942;4.026;2022-09-11T07:15:48;17.60;99.90
31133;DHT22;17779;50.942;4.026;2022-09-11T07:20:46;18.00;99.90
31133;DHT22;17779;50.942;4.026;2022-09-11T07:25:43;18.30;99.90
31133;DHT22;17779;50.942;4.026;2022-09-11T07:28:11;18.50;99.90
31133;DHT22;17779;50.942;4.026;2022-09-11T07:30:36;18.60;99.90
31133;DHT22;17779;50.942;4.026;2022-09-11T07:35:31;19.20;99.90
31133;DHT22;17779;50.942;4.026;2022-09-11T07:38:00;20.60;99.90
31133;DHT22;17779;50.942;4.026;2022-09-11T07:40:25;21.60;99.90
31133;DHT22;17779;50.942;4.026;2022-09-11T07:42:52;22.60;99.90
31133;DHT22;17779;50.942;4.026;2022-09-11T07:45:23;23.70;99.90
31133;DHT22;17779;50.942;4.026;2022-09-11T07:47:50;23.40;99.90
31133;DHT22;17779;50.942;4.026;2022-09-11T07:50:18;23.30;99.90
31133;DHT22;17779;50.942;4.026;2022-09-11T07:52:46;23.50;99.90
31133;DHT22;17779;50.942;4.026;2022-09-11T07:55:18;23.90;99.90
31133;DHT22;17779;50.942;4.026;2022-09-11T07:57:44;23.90;99.90
31133;DHT22;17779;50.942;4.026;2022-09-11T08:00:11;24.90;99.90
31133;DHT22;17779;50.942;4.026;2022-09-11T08:02:37;23.70;99.90
31133;DHT22;17779;50.942;4.026;2022-09-11T08:05:03;23.30;99.90
31133;DHT22;17779;50.942;4.026;2022-09-11T08:07:28;22.80;99.90
31133;DHT22;17779;50.942;4.026;2022-09-11T08:09:58;23.60;99.90
31133;DHT22;17779;50.942;4.026;2022-09-11T08:12:24;23.90;99.90
31133;DHT22;17779;50.942;4.026;2022-09-11T08:14:50;25.30;99.90
31133;DHT22;17779;50.942;4.026;2022-09-11T08:17:15;26.80;99.90
31133;DHT22;17779;50.942;4.026;2022-09-11T08:19:42;26.30;99.90
31133;DHT22;17779;50.942;4.026;2022-09-11T08:22:07;25.30;99.90
31133;DHT22;17779;50.942;4.026;2022-09-11T08:27:07;24.70;99.90
31133;DHT22;17779;50.942;4.026;2022-09-11T08:29:33;24.60;99.90
31133;DHT22;17779;50.942;4.026;2022-09-11T08:32:01;24.00;99.90
31133;DHT22;17779;50.942;4.026;2022-09-11T08:34:28;23.00;99.90
31133;DHT22;17779;50.942;4.026;2022-09-11T08:36:54;23.80;99.90
31133;DHT22;17779;50.942;4.026;2022-09-11T08:39:23;24.50;99.90
31133;DHT22;17779;50.942;4.026;2022-09-11T08:41:55;24.70;99.90
31133;DHT22;17779;50.942;4.026;2022-09-11T08:44:27;23.70;99.90
31133;DHT22;17779;50.942;4.026;2022-09-11T08:47:00;23.20;99.90
31133;DHT22;17779;50.942;4.026;2022-09-11T08:52:03;22.30;99.90
31133;DHT22;17779;50.942;4.026;2022-09-11T08:54:33;21.20;99.90
31133;DHT22;17779;50.942;4.026;2022-09-11T09:00:02;21.40;99.90
31133;DHT22;17779;50.942;4.026;2022-09-11T09:07:42;21.70;99.90
31133;DHT22;17779;50.942;4.026;2022-09-11T09:10:19;22.00;99.90
31133;DHT22;17779;50.942;4.026;2022-09-11T09:12:59;23.70;99.90
31133;DHT22;17779;50.942;4.026;2022-09-11T09:20:45;24.80;99.90
31133;DHT22;17779;50.942;4.026;2022-09-11T09:23:25;26.90;99.90
31133;DHT22;17779;50.942;4.026;2022-09-11T09:25:52;28.30;99.90
31133;DHT22;17779;50.942;4.026;2022-09-11T09:28:23;30.40;99.90
31133;DHT22;17779;50.942;4.026;2022-09-11T09:30:53;30.20;99.90
31133;DHT22;17779;50.942;4.026;2022-09-11T09:33:27;29.90;99.90
31133;DHT22;17779;50.942;4.026;2022-09-11T09:38:41;29.00;99.90
31133;DHT22;17779;50.942;4.026;2022-09-11T09:46:11;28.90;99.90
31133;DHT22;17779;50.942;4.026;2022-09-11T09:48:40;30.20;99.90
31133;DHT22;17779;50.942;4.026;2022-09-11T09:51:09;29.80;99.90
31133;DHT22;17779;50.942;4.026;2022-09-11T09:53:38;29.50;99.90
31133;DHT22;17779;50.942;4.026;2022-09-11T09:56:08;31.40;99.90
31133;DHT22;17779;50.942;4.026;2022-09-11T09:58:38;32.00;99.90
31133;DHT22;17779;50.942;4.026;2022-09-11T10:01:51;34.00;99.90
31133;DHT22;17779;50.942;4.026;2022-09-11T10:04:25;33.50;99.90
31133;DHT22;17779;50.942;4.026;2022-09-11T10:06:44;32.50;99.90
31133;DHT22;17779;50.942;4.026;2022-09-11T10:09:17;30.80;99.90
31133;DHT22;17779;50.942;4.026;2022-09-11T10:11:43;31.80;99.90
31133;DHT22;17779;50.942;4.026;2022-09-11T10:14:16;32.20;99.90
31133;DHT22;17779;50.942;4.026;2022-09-11T10:16:46;34.60;99.90
31133;DHT22;17779;50.942;4.026;2022-09-11T10:19:33;33.30;99.90
31133;DHT22;17779;50.942;4.026;2022-09-11T10:24:44;34.20;99.90
31133;DHT22;17779;50.942;4.026;2022-09-11T10:27:10;33.80;99.90
31133;DHT22;17779;50.942;4.026;2022-09-11T10:29:38;33.10;99.90
31133;DHT22;17779;50.942;4.026;2022-09-11T10:32:14;31.70;99.90
31133;DHT22;17779;50.942;4.026;2022-09-11T10:34:41;32.40;99.90
31133;DHT22;17779;50.942;4.026;2022-09-11T10:39:42;31.60;99.90
31133;DHT22;17779;50.942;4.026;2022-09-11T10:42:18;32.50;99.90
31133;DHT22;17779;50.942;4.026;2022-09-11T10:50:34;30.80;99.90
31133;DHT22;17779;50.942;4.026;2022-09-11T10:55:51;30.80;99.90
31133;DHT22;17779;50.942;4.026;2022-09-11T10:58:24;32.70;99.80
31133;DHT22;17779;50.942;4.026;2022-09-11T11:01:03;33.30;99.10
31133;DHT22;17779;50.942;4.026;2022-09-11T11:19:43;30.30;99.90
31133;DHT22;17779;50.942;4.026;2022-09-11T11:32:24;27.20;99.90
31133;DHT22;17779;50.942;4.026;2022-09-11T11:40:46;26.70;99.90
31133;DHT22;17779;50.942;4.026;2022-09-11T11:43:13;26.10;99.90
31133;DHT22;17779;50.942;4.026;2022-09-11T11:45:49;26.20;99.90
31133;DHT22;17779;50.942;4.026;2022-09-11T11:48:17;26.60;99.90
31133;DHT22;17779;50.942;4.026;2022-09-11T11:50:46;26.20;99.90
31133;DHT22;17779;50.942;4.026;2022-09-11T11:53:23;25.90;99.90
31133;DHT22;17779;50.942;4.026;2022-09-11T11:56:09;26.30;99.90
31133;DHT22;17779;50.942;4.026;2022-09-11T11:58:55;26.90;99.90
31133;DHT22;17779;50.942;4.026;2022-09-11T12:01:23;27.60;99.90
31133;DHT22;17779;50.942;4.026;2022-09-11T12:06:38;28.70;99.90
31133;DHT22;17779;50.942;4.026;2022-09-11T12:11:40;32.90;99.90
31133;DHT22;17779;50.942;4.026;2022-09-11T12:14:29;33.10;97.50
31133;DHT22;17779;50.942;4.026;2022-09-11T12:17:36;32.80;96.80
31133;DHT22;17779;50.942;4.026;2022-09-11T12:22:47;33.80;95.00
31133;DHT22;17779;50.942;4.026;2022-09-11T12:45:55;31.40;95.00
31133;DHT22;17779;50.942;4.026;2022-09-11T12:59:54;30.50;96.90
31133;DHT22;17779;50.942;4.026;2022-09-11T13:05:40;30.30;97.90
31133;DHT22;17779;50.942;4.026;2022-09-11T13:08:26;29.80;98.00
31133;DHT22;17779;50.942;4.026;2022-09-11T13:13:41;28.40;99.90
31133;DHT22;17779;50.942;4.026;2022-09-11T13:16:27;28.80;99.90
31133;DHT22;17779;50.942;4.026;2022-09-11T13:19:09;29.60;99.50
31133;DHT22;17779;50.942;4.026;2022-09-11T13:24:42;27.60;99.90
31133;DHT22;17779;50.942;4.026;2022-09-11T13:27:16;26.70;99.90
31133;DHT22;17779;50.942;4.026;2022-09-11T13:29:53;26.40;99.90
31133;DHT22;17779;50.942;4.026;2022-09-11T13:32:24;27.20;99.90
31133;DHT22;17779;50.942;4.026;2022-09-11T13:37:37;28.10;99.90
31133;DHT22;17779;50.942;4.026;2022-09-11T13:42:34;27.80;99.90
31133;DHT22;17779;50.942;4.026;2022-09-11T13:45:10;27.70;99.90
31133;DHT22;17779;50.942;4.026;2022-09-11T13:48:11;27.40;99.90
31133;DHT22;17779;50.942;4.026;2022-09-11T13:50:37;27.10;99.90
31133;DHT22;17779;50.942;4.026;2022-09-11T13:53:07;27.00;99.90
31133;DHT22;17779;50.942;4.026;2022-09-11T13:55:34;26.70;99.90
31133;DHT22;17779;50.942;4.026;2022-09-11T13:58:18;27.00;99.90
31133;DHT22;17779;50.942;4.026;2022-09-11T14:00:54;27.20;99.90
31133;DHT22;17779;50.942;4.026;2022-09-11T14:03:32;26.60;99.90
31133;DHT22;17779;50.942;4.026;2022-09-11T14:06:07;26.30;99.90
31133;DHT22;17779;50.942;4.026;2022-09-11T14:08:53;26.40;99.90
31133;DHT22;17779;50.942;4.026;2022-09-11T14:11:29;26.10;99.90
31133;DHT22;17779;50.942;4.026;2022-09-11T14:19:34;25.60;99.90
31133;DHT22;17779;50.942;4.026;2022-09-11T14:27:45;25.70;99.90
31133;DHT22;17779;50.942;4.026;2022-09-11T14:30:30;25.80;99.90
31133;DHT22;17779;50.942;4.026;2022-09-11T14:35:37;25.20;99.90
31133;DHT22;17779;50.942;4.026;2022-09-11T14:38:03;24.50;99.90
31133;DHT22;17779;50.942;4.026;2022-09-11T14:40:29;24.50;99.90
31133;DHT22;17779;50.942;4.026;2022-09-11T14:42:55;24.20;99.90
31133;DHT22;17779;50.942;4.026;2022-09-11T14:45:29;23.80;99.90
31133;DHT22;17779;50.942;4.026;2022-09-11T14:48:04;24.20;99.90
31133;DHT22;17779;50.942;4.026;2022-09-11T14:53:03;23.90;99.90
31133;DHT22;17779;50.942;4.026;2022-09-11T14:55:29;23.70;99.90
31133;DHT22;17779;50.942;4.026;2022-09-11T14:58:07;23.60;99.90
31133;DHT22;17779;50.942;4.026;2022-09-11T15:00:32;23.70;99.90
31133;DHT22;17779;50.942;4.026;2022-09-11T15:02:59;23.80;99.90
31133;DHT22;17779;50.942;4.026;2022-09-11T15:05:27;23.60;99.90
31133;DHT22;17779;50.942;4.026;2022-09-11T15:07:54;23.80;99.90
31133;DHT22;17779;50.942;4.026;2022-09-11T15:10:27;24.00;99.90
31133;DHT22;17779;50.942;4.026;2022-09-11T15:13:03;23.80;99.90
31133;DHT22;17779;50.942;4.026;2022-09-11T15:18:03;23.70;99.90
31133;DHT22;17779;50.942;4.026;2022-09-11T15:20:39;23.70;99.90
31133;DHT22;17779;50.942;4.026;2022-09-11T15:23:08;23.50;99.90
31133;DHT22;17779;50.942;4.026;2022-09-11T15:25:45;23.30;99.90
31133;DHT22;17779;50.942;4.026;2022-09-11T15:28:39;23.40;99.90
31133;DHT22;17779;50.942;4.026;2022-09-11T15:31:04;23.60;99.90
31133;DHT22;17779;50.942;4.026;2022-09-11T15:33:31;23.40;99.90
31133;DHT22;17779;50.942;4.026;2022-09-11T15:36:07;23.40;99.90
31133;DHT22;17779;50.942;4.026;2022-09-11T15:38:50;23.30;99.90
31133;DHT22;17779;50.942;4.026;2022-09-11T15:41:17;23.20;99.90
31133;DHT22;17779;50.942;4.026;2022-09-11T15:43:44;23.30;99.90
31133;DHT22;17779;50.942;4.026;2022-09-11T15:46:10;23.60;99.90
31133;DHT22;17779;50.942;4.026;2022-09-11T15:51:13;23.60;99.90
31133;DHT22;17779;50.942;4.026;2022-09-11T15:53:45;23.80;99.90
31133;DHT22;17779;50.942;4.026;2022-09-11T15:56:15;23.70;99.90
31133;DHT22;17779;50.942;4.026;2022-09-11T15:58:47;23.70;99.90
31133;DHT22;17779;50.942;4.026;2022-09-11T16:01:17;23.50;99.90
31133;DHT22;17779;50.942;4.026;2022-09-11T16:03:43;23.60;99.90
31133;DHT22;17779;50.942;4.026;2022-09-11T16:06:08;23.70;99.90
31133;DHT22;17779;50.942;4.026;2022-09-11T16:08:38;23.70;99.90
31133;DHT22;17779;50.942;4.026;2022-09-11T16:11:06;23.80;99.90
31133;DHT22;17779;50.942;4.026;2022-09-11T16:13:34;23.70;99.90
31133;DHT22;17779;50.942;4.026;2022-09-11T16:16:11;23.70;99.90
31133;DHT22;17779;50.942;4.026;2022-09-11T16:18:37;23.50;99.90
31133;DHT22;17779;50.942;4.026;2022-09-11T16:21:05;23.40;99.90
31133;DHT22;17779;50.942;4.026;2022-09-11T16:26:02;23.30;99.90
31133;DHT22;17779;50.942;4.026;2022-09-11T16:31:09;23.40;99.90
31133;DHT22;17779;50.942;4.026;2022-09-11T16:33:35;23.50;99.90
31133;DHT22;17779;50.942;4.026;2022-09-11T16:36:15;23.50;99.90
31133;DHT22;17779;50.942;4.026;2022-09-11T16:38:41;23.50;99.90
31133;DHT22;17779;50.942;4.026;2022-09-11T16:41:17;23.30;99.90
31133;DHT22;17779;50.942;4.026;2022-09-11T16:46:18;23.40;99.90
31133;DHT22;17779;50.942;4.026;2022-09-11T16:48:55;23.60;99.90
31133;DHT22;17779;50.942;4.026;2022-09-11T16:51:24;23.50;99.90
31133;DHT22;17779;50.942;4.026;2022-09-11T16:53:50;23.50;99.90
31133;DHT22;17779;50.942;4.026;2022-09-11T16:56:23;23.50;99.90
31133;DHT22;17779;50.942;4.026;2022-09-11T16:58:50;23.40;99.90
31133;DHT22;17779;50.942;4.026;2022-09-11T17:01:17;23.50;99.90
31133;DHT22;17779;50.942;4.026;2022-09-11T17:03:48;23.50;99.90
31133;DHT22;17779;50.942;4.026;2022-09-11T17:06:15;23.60;99.90
31133;DHT22;17779;50.942;4.026;2022-09-11T17:08:44;23.70;99.90
31133;DHT22;17779;50.942;4.026;2022-09-11T17:11:16;23.70;99.90
31133;DHT22;17779;50.942;4.026;2022-09-11T17:13:43;23.60;99.90
31133;DHT22;17779;50.942;4.026;2022-09-11T17:16:11;23.30;99.90
31133;DHT22;17779;50.942;4.026;2022-09-11T17:18:43;23.10;99.90
31133;DHT22;17779;50.942;4.026;2022-09-11T17:21:10;22.80;99.90
31133;DHT22;17779;50.942;4.026;2022-09-11T17:23:37;22.80;99.90
31133;DHT22;17779;50.942;4.026;2022-09-11T17:29:07;22.90;99.90
31133;DHT22;17779;50.942;4.026;2022-09-11T17:31:36;22.70;99.90
31133;DHT22;17779;50.942;4.026;2022-09-11T17:36:46;22.80;99.90
31133;DHT22;17779;50.942;4.026;2022-09-11T17:39:15;22.70;99.90
31133;DHT22;17779;50.942;4.026;2022-09-11T17:44:15;22.90;99.90
31133;DHT22;17779;50.942;4.026;2022-09-11T17:46:44;22.80;99.90
31133;DHT22;17779;50.942;4.026;2022-09-11T17:49:10;22.60;99.90
31133;DHT22;17779;50.942;4.026;2022-09-11T17:51:39;22.40;99.90
31133;DHT22;17779;50.942;4.026;2022-09-11T17:54:05;22.30;99.90
31133;DHT22;17779;50.942;4.026;2022-09-11T17:56:31;22.30;99.90
31133;DHT22;17779;50.942;4.026;2022-09-11T17:58:58;22.20;99.90
31133;DHT22;17779;50.942;4.026;2022-09-11T18:03:56;22.30;99.90
31133;DHT22;17779;50.942;4.026;2022-09-11T18:06:31;22.30;99.90
31133;DHT22;17779;50.942;4.026;2022-09-11T18:09:03;22.00;99.90
31133;DHT22;17779;50.942;4.026;2022-09-11T18:11:43;21.90;99.90
31133;DHT22;17779;50.942;4.026;2022-09-11T18:16:44;21.60;99.90
31133;DHT22;17779;50.942;4.026;2022-09-11T18:19:15;21.50;99.90
31133;DHT22;17779;50.942;4.026;2022-09-11T18:21:48;21.50;99.90
31133;DHT22;17779;50.942;4.026;2022-09-11T18:24:14;21.40;99.90
31133;DHT22;17779;50.942;4.026;2022-09-11T18:26:45;21.50;99.90
31133;DHT22;17779;50.942;4.026;2022-09-11T18:29:14;21.40;99.90
31133;DHT22;17779;50.942;4.026;2022-09-11T18:31:47;21.50;99.90
31133;DHT22;17779;50.942;4.026;2022-09-11T18:34:14;21.60;99.90
31133;DHT22;17779;50.942;4.026;2022-09-11T18:36:41;21.60;99.90
31133;DHT22;17779;50.942;4.026;2022-09-11T18:39:07;21.50;99.90
31133;DHT22;17779;50.942;4.026;2022-09-11T18:41:34;21.70;99.90
31133;DHT22;17779;50.942;4.026;2022-09-11T18:44:00;21.60;99.90
31133;DHT22;17779;50.942;4.026;2022-09-11T18:48:57;21.30;99.90
31133;DHT22;17779;50.942;4.026;2022-09-11T18:51:24;21.10;99.90
31133;DHT22;17779;50.942;4.026;2022-09-11T18:53:53;20.90;99.90
31133;DHT22;17779;50.942;4.026;2022-09-11T18:56:23;20.90;99.90
31133;DHT22;17779;50.942;4.026;2022-09-11T18:58:49;20.90;99.90
31133;DHT22;17779;50.942;4.026;2022-09-11T19:03:49;20.70;99.90
31133;DHT22;17779;50.942;4.026;2022-09-11T19:06:20;20.60;99.90
31133;DHT22;17779;50.942;4.026;2022-09-11T19:08:46;20.60;99.90
31133;DHT22;17779;50.942;4.026;2022-09-11T19:11:15;20.90;99.90
31133;DHT22;17779;50.942;4.026;2022-09-11T19:13:43;20.90;99.90
31133;DHT22;17779;50.942;4.026;2022-09-11T19:18:37;21.10;99.90
31133;DHT22;17779;50.942;4.026;2022-09-11T19:23:36;20.90;99.90
31133;DHT22;17779;50.942;4.026;2022-09-11T19:26:16;20.90;99.90
31133;DHT22;17779;50.942;4.026;2022-09-11T19:28:45;20.60;99.90
31133;DHT22;17779;50.942;4.026;2022-09-11T19:31:13;20.70;99.90
31133;DHT22;17779;50.942;4.026;2022-09-11T19:33:39;20.60;99.90
31133;DHT22;17779;50.942;4.026;2022-09-11T19:36:14;20.60;99.90
31133;DHT22;17779;50.942;4.026;2022-09-11T19:38:41;20.70;99.90
31133;DHT22;17779;50.942;4.026;2022-09-11T19:43:56;20.50;99.90
31133;DHT22;17779;50.942;4.026;2022-09-11T19:46:28;20.50;99.90